createdAt,value
2023-01-27T00:02:15.301Z,9.32
2023-01-27T00:04:42.777Z,6.50
2023-01-27T00:07:10.395Z,2.70
2023-01-27T00:09:38.018Z,3.25
2023-01-27T00:12:23.730Z,6.95
2023-01-27T00:14:51.382Z,3.80
2023-01-27T00:17:18.942Z,6.32
2023-01-27T00:19:46.705Z,4.75
2023-01-27T00:22:32.521Z,2.63
2023-01-27T00:25:00.491Z,8.38
2023-01-27T00:27:28.187Z,3.30
2023-01-27T00:29:55.832Z,5.38
2023-01-27T00:32:41.812Z,8.02
2023-01-27T00:35:09.467Z,3.42
2023-01-27T00:37:36.938Z,6.45
2023-01-27T00:40:04.566Z,3.25
2023-01-27T00:42:32.126Z,4.20
2023-01-27T00:45:20.206Z,5.28
2023-01-27T00:47:51.168Z,5.53
2023-01-27T00:50:18.719Z,5.60
2023-01-27T00:52:46.711Z,5.43
2023-01-27T00:55:16.677Z,5.30
2023-01-27T00:57:44.476Z,4.00
2023-01-27T01:00:13.205Z,6.25
2023-01-27T01:02:40.901Z,6.10
2023-01-27T01:05:08.765Z,4.82
2023-01-27T01:07:36.375Z,4.88
2023-01-27T01:10:04.182Z,5.28
2023-01-27T01:12:31.890Z,4.03
2023-01-27T01:14:59.466Z,4.55
2023-01-27T01:17:27.265Z,5.38
2023-01-27T01:19:54.806Z,4.32
2023-01-27T01:22:22.267Z,5.82
2023-01-27T01:24:50.283Z,4.28
2023-01-27T01:27:18.087Z,4.80
2023-01-27T01:29:46.765Z,4.53
2023-01-27T01:32:14.426Z,2.65
2023-01-27T01:34:42.040Z,5.18
2023-01-27T01:37:09.872Z,4.07
2023-01-27T01:39:39.110Z,3.13
2023-01-27T01:42:06.637Z,2.72
2023-01-27T01:44:34.817Z,2.88
2023-01-27T01:47:02.475Z,3.78
2023-01-27T01:49:35.936Z,2.50
2023-01-27T01:52:05.981Z,3.60
2023-01-27T01:54:42.592Z,3.90
2023-01-27T01:57:38.566Z,3.58
2023-01-27T02:00:07.822Z,4.10
2023-01-27T02:02:36.064Z,2.88
2023-01-27T02:05:07.241Z,3.15
2023-01-27T02:07:36.977Z,4.93
2023-01-27T02:10:05.966Z,3.47
2023-01-27T02:12:33.443Z,2.45
2023-01-27T02:15:01.131Z,7.75
2023-01-27T02:17:29.069Z,7.95
2023-01-27T02:20:06.722Z,5.40
2023-01-27T02:22:40.432Z,4.35
2023-01-27T02:25:19.194Z,3.53
2023-01-27T02:27:47.041Z,3.83
2023-01-27T02:30:14.674Z,5.57
2023-01-27T02:32:43.411Z,5.47
2023-01-27T02:35:12.891Z,4.85
2023-01-27T02:37:41.313Z,4.65
2023-01-27T02:40:09.707Z,5.18
2023-01-27T02:42:37.272Z,4.38
2023-01-27T02:45:05.373Z,5.30
2023-01-27T02:47:32.986Z,4.75
2023-01-27T02:50:00.569Z,4.07
2023-01-27T02:52:28.322Z,3.03
2023-01-27T02:54:56.149Z,4.90
2023-01-27T02:57:24.757Z,4.60
2023-01-27T02:59:52.277Z,3.28
2023-01-27T03:02:23.582Z,3.58
2023-01-27T03:04:51.507Z,4.35
2023-01-27T03:07:19.385Z,3.60
2023-01-27T03:09:47.049Z,4.75
2023-01-27T03:12:20.921Z,3.78
2023-01-27T03:15:07.274Z,4.15
2023-01-27T03:17:54.082Z,4.03
2023-01-27T03:20:22.862Z,4.30
2023-01-27T03:22:50.966Z,5.55
2023-01-27T03:25:18.487Z,5.63
2023-01-27T03:27:46.395Z,5.53
2023-01-27T03:30:16.082Z,5.30
2023-01-27T03:32:49.768Z,5.13
2023-01-27T03:35:17.831Z,4.97
2023-01-27T03:38:03.698Z,5.70
2023-01-27T03:40:49.780Z,5.82
2023-01-27T03:43:35.662Z,5.78
2023-01-27T03:46:21.444Z,6.78
2023-01-27T03:48:55.718Z,5.22
2023-01-27T03:51:24.719Z,5.78
2023-01-27T03:53:52.423Z,5.70
2023-01-27T03:56:20.837Z,7.35
2023-01-27T03:58:49.355Z,6.90
2023-01-27T04:01:21.317Z,6.53
2023-01-27T04:04:07.657Z,6.72
2023-01-27T04:06:54.844Z,6.15
2023-01-27T04:09:24.500Z,7.05
2023-01-27T04:11:59.687Z,6.28
2023-01-27T04:14:31.300Z,6.72
2023-01-27T04:17:00.180Z,6.45
2023-01-27T04:19:27.782Z,4.15
2023-01-27T04:21:55.744Z,6.22
2023-01-27T04:24:23.766Z,6.53
2023-01-27T04:27:01.916Z,5.57
2023-01-27T04:29:30.656Z,7.95
2023-01-27T04:31:58.683Z,5.18
2023-01-27T04:34:26.707Z,6.43
2023-01-27T04:36:54.475Z,5.47
2023-01-27T04:39:22.071Z,5.43
2023-01-27T04:41:52.354Z,7.07
2023-01-27T04:44:23.640Z,6.32
2023-01-27T04:46:51.415Z,7.10
2023-01-27T04:49:19.117Z,7.43
2023-01-27T04:51:47.461Z,7.32
2023-01-27T04:54:15.307Z,6.40
2023-01-27T04:56:47.273Z,8.48
2023-01-27T04:59:17.844Z,7.53
2023-01-27T05:01:45.402Z,8.88
2023-01-27T05:04:12.918Z,10.23
2023-01-27T05:06:40.484Z,8.80
2023-01-27T05:09:08.016Z,10.82
2023-01-27T05:11:35.492Z,10.18
2023-01-27T05:14:03.009Z,10.45
2023-01-27T05:16:30.516Z,10.13
2023-01-27T05:18:58.185Z,8.18
2023-01-27T05:21:28.913Z,11.13
2023-01-27T05:23:56.455Z,9.63
2023-01-27T05:26:28.253Z,10.25
2023-01-27T05:28:57.495Z,8.75
2023-01-27T05:31:29.923Z,8.40
2023-01-27T05:33:59.122Z,10.05
2023-01-27T05:36:27.351Z,9.70
2023-01-27T05:38:55.551Z,7.63
2023-01-27T05:41:23.471Z,9.20
2023-01-27T05:43:54.858Z,9.55
2023-01-27T05:46:26.585Z,7.55
2023-01-27T05:48:55.301Z,9.70
2023-01-27T05:51:23.885Z,8.13
2023-01-27T05:53:51.795Z,9.70
2023-01-27T05:56:19.992Z,7.10
2023-01-27T05:58:47.501Z,9.90
2023-01-27T06:01:16.563Z,7.32
2023-01-27T06:03:48.281Z,11.07
2023-01-27T06:06:17.923Z,9.45
2023-01-27T06:08:46.282Z,8.57
2023-01-27T06:11:13.859Z,9.45
2023-01-27T06:13:41.926Z,9.65
2023-01-27T06:16:10.567Z,7.97
2023-01-27T06:18:38.490Z,9.52
2023-01-27T06:21:06.844Z,10.50
2023-01-27T06:23:34.329Z,6.18
2023-01-27T06:26:03.237Z,8.48
2023-01-27T06:28:31.082Z,7.88
2023-01-27T06:31:05.496Z,9.45
2023-01-27T06:33:33.039Z,8.63
2023-01-27T06:36:08.123Z,6.40
2023-01-27T06:38:36.798Z,6.47
2023-01-27T06:41:04.507Z,8.77
2023-01-27T06:43:32.029Z,8.30
2023-01-27T06:45:59.851Z,9.38
2023-01-27T06:48:27.845Z,9.27
2023-01-27T06:50:55.737Z,8.65
2023-01-27T06:53:23.671Z,11.05
2023-01-27T06:55:56.824Z,11.40
2023-01-27T06:58:24.363Z,9.75
2023-01-27T07:00:52.767Z,9.07
2023-01-27T07:03:20.597Z,7.72
2023-01-27T07:05:48.211Z,7.00
2023-01-27T07:08:15.951Z,8.50
2023-01-27T07:10:43.407Z,8.57
2023-01-27T07:13:12.424Z,7.93
2023-01-27T07:15:40.463Z,9.18
2023-01-27T07:18:08.453Z,9.80
2023-01-27T07:20:35.995Z,11.00
2023-01-27T07:23:05.017Z,8.85
2023-01-27T07:25:33.570Z,12.18
2023-01-27T07:28:02.419Z,8.20
2023-01-27T07:30:30.619Z,8.20
2023-01-27T07:33:07.811Z,9.60
2023-01-27T07:35:37.144Z,11.63
2023-01-27T07:38:05.006Z,10.38
2023-01-27T07:40:32.683Z,12.18
2023-01-27T07:43:00.562Z,7.75
2023-01-27T07:45:28.544Z,8.27
2023-01-27T07:48:00.912Z,10.18
2023-01-27T07:50:28.497Z,7.40
2023-01-27T07:52:56.021Z,9.27
2023-01-27T07:55:23.745Z,8.35
2023-01-27T07:57:54.025Z,7.75
2023-01-27T08:00:22.466Z,10.48
2023-01-27T08:02:56.760Z,9.75
2023-01-27T08:05:24.847Z,10.57
2023-01-27T08:07:52.873Z,9.63
2023-01-27T08:10:20.472Z,7.97
2023-01-27T08:12:48.362Z,8.80
2023-01-27T08:15:18.842Z,7.15
2023-01-27T08:17:54.511Z,5.28
2023-01-27T08:20:22.877Z,10.07
2023-01-27T08:22:50.728Z,8.02
2023-01-27T08:25:19.022Z,7.13
2023-01-27T08:27:46.659Z,6.63
2023-01-27T08:30:14.421Z,6.40
2023-01-27T08:32:42.105Z,8.65
2023-01-27T08:35:09.623Z,8.88
2023-01-27T08:37:37.510Z,7.63
2023-01-27T08:40:05.171Z,8.07
2023-01-27T08:42:32.834Z,7.38
2023-01-27T08:45:01.151Z,8.02
2023-01-27T08:47:28.673Z,6.75
2023-01-27T08:49:56.117Z,8.65
2023-01-27T08:52:24.121Z,9.23
2023-01-27T08:54:51.646Z,8.45
2023-01-27T08:57:19.103Z,7.43
2023-01-27T08:59:46.938Z,11.85
2023-01-27T09:02:15.936Z,8.07
2023-01-27T09:04:45.889Z,8.27
2023-01-27T09:07:13.418Z,9.05
2023-01-27T09:09:40.978Z,8.98
2023-01-27T09:12:08.497Z,7.53
2023-01-27T09:14:36.221Z,6.53
2023-01-27T09:17:03.765Z,7.70
2023-01-27T09:19:31.251Z,10.88
2023-01-27T09:21:58.931Z,6.90
2023-01-27T09:24:26.737Z,6.30
2023-01-27T09:26:54.623Z,9.25
2023-01-27T09:29:22.466Z,12.43
2023-01-27T09:31:51.056Z,7.80
2023-01-27T09:34:19.992Z,9.68
2023-01-27T09:36:50.033Z,8.38
2023-01-27T09:39:18.321Z,11.65
2023-01-27T09:41:57.943Z,10.43
2023-01-27T09:44:43.405Z,6.28
2023-01-27T09:47:13.727Z,8.07
2023-01-27T09:49:50.732Z,9.77
2023-01-27T09:52:18.127Z,7.90
2023-01-27T09:54:45.551Z,9.20
2023-01-27T09:57:24.135Z,10.80
2023-01-27T10:00:10.185Z,8.43
2023-01-27T10:02:47.808Z,11.68
2023-01-27T10:05:15.966Z,9.98
2023-01-27T10:07:55.604Z,8.55
2023-01-27T10:10:23.257Z,8.93
2023-01-27T10:12:53.795Z,8.52
2023-01-27T10:15:40.641Z,6.60
2023-01-27T10:18:26.873Z,8.27
2023-01-27T10:21:04.871Z,10.07
2023-01-27T10:23:46.518Z,10.18
2023-01-27T10:26:40.206Z,8.48
2023-01-27T10:29:07.707Z,6.97
2023-01-27T10:31:42.940Z,10.10
2023-01-27T10:34:33.324Z,8.48
2023-01-27T10:37:36.425Z,7.88
2023-01-27T10:40:04.086Z,8.80
2023-01-27T10:43:02.762Z,10.07
2023-01-27T10:45:43.523Z,7.88
2023-01-27T10:48:29.691Z,7.90
2023-01-27T10:51:03.621Z,7.68
2023-01-27T10:53:49.961Z,8.65
2023-01-27T10:56:34.411Z,7.47
2023-01-27T10:59:20.734Z,8.35
2023-01-27T11:01:52.793Z,9.18
2023-01-27T11:04:33.345Z,8.32
2023-01-27T11:07:01.241Z,8.55
2023-01-27T11:09:33.683Z,9.98
2023-01-27T11:12:06.343Z,11.77
2023-01-27T11:14:47.982Z,6.85
2023-01-27T11:17:18.349Z,7.68
2023-01-27T11:19:51.502Z,7.88
2023-01-27T11:22:23.809Z,7.22
2023-01-27T11:25:23.767Z,6.95
2023-01-27T11:27:57.742Z,7.50
2023-01-27T11:30:34.885Z,10.00
2023-01-27T11:33:19.063Z,7.93
2023-01-27T11:35:47.017Z,8.00
2023-01-27T11:38:23.902Z,8.98
2023-01-27T11:40:52.415Z,8.95
2023-01-27T11:43:21.178Z,8.35
2023-01-27T11:45:49.114Z,7.97
2023-01-27T11:48:18.072Z,7.45
2023-01-27T11:50:46.055Z,8.57
2023-01-27T11:53:25.076Z,9.07
2023-01-27T11:56:04.448Z,7.53
2023-01-27T11:58:41.954Z,9.80
2023-01-27T12:01:16.463Z,8.65
2023-01-27T12:03:46.957Z,10.00
2023-01-27T12:06:16.735Z,8.65
2023-01-27T12:08:49.123Z,10.00
2023-01-27T12:11:20.554Z,9.30
2023-01-27T12:13:56.150Z,6.97
2023-01-27T12:16:32.792Z,9.02
2023-01-27T12:19:03.362Z,8.85
2023-01-27T12:21:47.807Z,9.30
2023-01-27T12:24:41.603Z,8.02
2023-01-27T12:29:44.053Z,7.22
2023-01-27T12:32:15.562Z,8.15
2023-01-27T12:34:45.352Z,9.63
2023-01-27T12:37:20.449Z,8.13
2023-01-27T12:39:54.047Z,10.80
2023-01-27T12:42:41.761Z,8.88
2023-01-27T12:45:18.990Z,8.93
2023-01-27T12:47:57.143Z,10.05
2023-01-27T12:50:27.356Z,8.48
2023-01-27T12:53:11.881Z,7.30
2023-01-27T12:55:42.556Z,9.15
2023-01-27T12:58:26.707Z,8.60
2023-01-27T13:00:54.398Z,7.20
2023-01-27T13:03:22.790Z,7.85
2023-01-27T13:05:53.915Z,9.88
2023-01-27T13:08:22.357Z,9.23
2023-01-27T13:10:56.763Z,8.13
2023-01-27T13:13:31.175Z,7.97
2023-01-27T13:15:58.690Z,7.60
2023-01-27T13:18:26.201Z,7.80
2023-01-27T13:21:00.057Z,8.63
2023-01-27T13:23:29.351Z,7.82
2023-01-27T13:26:05.706Z,8.30
2023-01-27T13:28:51.781Z,7.53
2023-01-27T13:31:33.535Z,7.90
2023-01-27T13:34:04.657Z,9.00
2023-01-27T13:36:44.038Z,10.77
2023-01-27T13:39:30.319Z,11.10
2023-01-27T13:42:07.795Z,8.65
2023-01-27T13:45:04.621Z,9.88
2023-01-27T13:47:45.874Z,8.55
2023-01-27T13:50:29.334Z,6.82
2023-01-27T13:52:58.770Z,8.38
2023-01-27T13:55:51.858Z,9.07
2023-01-27T13:58:34.310Z,9.82
2023-01-27T14:01:01.791Z,7.95
2023-01-27T14:03:47.742Z,9.63
2023-01-27T14:06:30.867Z,8.45
2023-01-27T14:09:13.717Z,8.13
2023-01-27T14:11:44.654Z,6.22
2023-01-27T14:14:24.558Z,8.38
2023-01-27T14:17:12.208Z,9.93
2023-01-27T14:19:42.696Z,8.00
2023-01-27T14:22:10.413Z,7.25
2023-01-27T14:24:56.700Z,7.85
2023-01-27T14:27:44.367Z,7.38
2023-01-27T14:30:18.791Z,7.68
2023-01-27T14:32:51.361Z,9.40
2023-01-27T14:35:28.614Z,6.85
2023-01-27T14:38:28.690Z,7.68
2023-01-27T15:02:45.728Z,7.03
2023-01-27T15:05:13.435Z,7.13
2023-01-27T15:07:41.344Z,8.55
2023-01-27T15:10:25.359Z,6.82
2023-01-27T15:13:12.067Z,7.13
2023-01-27T15:15:42.712Z,6.18
2023-01-27T15:18:22.039Z,6.75
2023-01-27T15:21:08.297Z,5.75
2023-01-27T15:23:38.647Z,5.32
2023-01-27T15:26:08.605Z,6.43
2023-01-27T15:28:45.380Z,7.57
2023-01-27T15:31:17.232Z,6.53
2023-01-27T15:33:52.797Z,5.82
2023-01-27T15:36:40.955Z,5.97
2023-01-27T15:39:14.310Z,6.55
2023-01-27T15:52:29.727Z,5.68
2023-01-27T15:54:58.728Z,5.85
2023-01-27T15:57:28.973Z,7.22
2023-01-27T16:00:02.414Z,5.65
2023-01-27T16:02:31.427Z,7.07
2023-01-27T16:05:15.678Z,6.15
2023-01-27T16:07:43.520Z,5.88
2023-01-27T16:10:16.343Z,4.47
2023-01-27T16:12:48.726Z,5.65
2023-01-27T16:15:16.332Z,4.73
2023-01-27T16:18:00.793Z,5.38
2023-01-27T16:20:31.123Z,5.53
2023-01-27T16:23:03.329Z,5.50
2023-01-27T16:25:37.226Z,4.53
2023-01-27T16:28:10.434Z,4.82
2023-01-27T16:30:44.715Z,5.00
2023-01-27T16:33:24.965Z,4.47
2023-01-27T16:35:59.269Z,5.03
2023-01-27T16:38:28.631Z,4.72
2023-01-27T16:40:58.087Z,4.78
2023-01-27T16:43:32.119Z,3.72
2023-01-27T16:46:01.417Z,4.60
2023-01-27T16:48:39.029Z,5.30
2023-01-27T17:02:51.834Z,6.13
2023-01-27T17:10:36.581Z,4.57
2023-01-27T17:21:20.613Z,4.18
2023-01-27T17:23:51.521Z,3.58
2023-01-27T17:26:20.495Z,4.50
2023-01-27T17:28:49.691Z,4.30
2023-01-27T17:31:21.036Z,3.85
2023-01-27T17:33:50.578Z,3.85
2023-01-27T17:36:19.756Z,4.20
2023-01-27T17:38:48.870Z,4.47
2023-01-27T17:46:42.350Z,3.30
